sensor_id;sensor_type;location;lat;lon;timestamp;pressure;altitude;pressure_sealevel;temperature;humidity
55733;BME280;41637;52.364;9.910;2022-11-04T00:02:07;99366.64;;;11.28;87.85
55733;BME280;41637;52.364;9.910;2022-11-04T00:04:34;99364.10;;;11.31;87.71
55733;BME280;41637;52.364;9.910;2022-11-04T00:07:00;99355.42;;;11.34;87.98
55733;BME280;41637;52.364;9.910;2022-11-04T00:09:28;99359.71;;;11.35;87.81
55733;BME280;41637;52.364;9.910;2022-11-04T00:11:56;99359.88;;;11.34;87.87
55733;BME280;41637;52.364;9.910;2022-11-04T00:14:42;99354.84;;;11.31;88.00
55733;BME280;41637;52.364;9.910;2022-11-04T00:17:12;99351.86;;;11.28;88.27
55733;BME280;41637;52.364;9.910;2022-11-04T00:19:46;99350.64;;;11.26;88.30
55733;BME280;41637;52.364;9.910;2022-11-04T00:22:33;99350.52;;;11.27;88.40
55733;BME280;41637;52.364;9.910;2022-11-04T00:25:19;99349.80;;;11.31;88.06
55733;BME280;41637;52.364;9.910;2022-11-04T00:28:14;99352.28;;;11.35;87.84
55733;BME280;41637;52.364;9.910;2022-11-04T00:31:03;99349.48;;;11.41;87.44
55733;BME280;41637;52.364;9.910;2022-11-04T00:33:50;99350.90;;;11.47;87.06
55733;BME280;41637;52.364;9.910;2022-11-04T00:36:17;99350.50;;;11.52;86.93
55733;BME280;41637;52.364;9.910;2022-11-04T00:38:44;99349.26;;;11.56;86.62
55733;BME280;41637;52.364;9.910;2022-11-04T00:41:11;99346.91;;;11.58;86.71
55733;BME280;41637;52.364;9.910;2022-11-04T00:43:58;99348.69;;;11.61;86.91
55733;BME280;41637;52.364;9.910;2022-11-04T00:46:27;99345.56;;;11.63;86.89
55733;BME280;41637;52.364;9.910;2022-11-04T00:48:54;99344.73;;;11.65;86.95
55733;BME280;41637;52.364;9.910;2022-11-04T00:51:21;99347.67;;;11.66;87.05
55733;BME280;41637;52.364;9.910;2022-11-04T00:53:48;99349.78;;;11.67;87.09
55733;BME280;41637;52.364;9.910;2022-11-04T00:56:15;99349.28;;;11.68;87.04
55733;BME280;41637;52.364;9.910;2022-11-04T00:58:42;99348.62;;;11.69;87.25
55733;BME280;41637;52.364;9.910;2022-11-04T01:01:13;99344.90;;;11.70;87.22
55733;BME280;41637;52.364;9.910;2022-11-04T01:03:45;99341.76;;;11.71;87.12
55733;BME280;41637;52.364;9.910;2022-11-04T01:06:12;99344.07;;;11.72;87.10
55733;BME280;41637;52.364;9.910;2022-11-04T01:08:39;99344.80;;;11.73;87.10
55733;BME280;41637;52.364;9.910;2022-11-04T01:11:08;99342.41;;;11.75;87.14
55733;BME280;41637;52.364;9.910;2022-11-04T01:13:35;99350.36;;;11.78;87.02
55733;BME280;41637;52.364;9.910;2022-11-04T01:16:04;99354.17;;;11.78;86.99
55733;BME280;41637;52.364;9.910;2022-11-04T01:18:31;99359.27;;;11.80;86.87
55733;BME280;41637;52.364;9.910;2022-11-04T01:21:02;99359.54;;;11.81;87.05
55733;BME280;41637;52.364;9.910;2022-11-04T01:23:29;99364.64;;;11.81;86.83
55733;BME280;41637;52.364;9.910;2022-11-04T01:25:56;99367.30;;;11.81;87.06
55733;BME280;41637;52.364;9.910;2022-11-04T01:28:22;99376.42;;;11.80;87.25
55733;BME280;41637;52.364;9.910;2022-11-04T01:30:49;99386.76;;;11.76;87.90
55733;BME280;41637;52.364;9.910;2022-11-04T01:33:16;99391.17;;;11.69;89.12
55733;BME280;41637;52.364;9.910;2022-11-04T01:35:43;99395.32;;;11.59;90.33
55733;BME280;41637;52.364;9.910;2022-11-04T01:38:09;99392.84;;;11.50;90.82
55733;BME280;41637;52.364;9.910;2022-11-04T01:40:38;99391.08;;;11.42;91.09
55733;BME280;41637;52.364;9.910;2022-11-04T01:43:13;99389.60;;;11.35;91.85
55733;BME280;41637;52.364;9.910;2022-11-04T01:45:46;99385.11;;;11.27;92.85
55733;BME280;41637;52.364;9.910;2022-11-04T01:48:28;99392.13;;;11.19;93.75
55733;BME280;41637;52.364;9.910;2022-11-04T01:50:58;99393.67;;;11.13;94.44
55733;BME280;41637;52.364;9.910;2022-11-04T01:53:28;99405.23;;;11.09;94.94
55733;BME280;41637;52.364;9.910;2022-11-04T01:55:59;99402.55;;;11.07;95.23
55733;BME280;41637;52.364;9.910;2022-11-04T01:58:31;99400.88;;;11.05;95.34
55733;BME280;41637;52.364;9.910;2022-11-04T02:01:00;99406.84;;;11.04;95.69
55733;BME280;41637;52.364;9.910;2022-11-04T02:03:31;99420.34;;;11.02;96.22
55733;BME280;41637;52.364;9.910;2022-11-04T02:06:00;99420.58;;;11.00;96.69
55733;BME280;41637;52.364;9.910;2022-11-04T02:08:28;99414.58;;;10.98;97.06
55733;BME280;41637;52.364;9.910;2022-11-04T02:10:59;99409.59;;;10.97;97.73
55733;BME280;41637;52.364;9.910;2022-11-04T02:13:27;99406.41;;;10.99;97.23
55733;BME280;41637;52.364;9.910;2022-11-04T02:19:31;99387.33;;;11.00;97.42
55733;BME280;41637;52.364;9.910;2022-11-04T02:30:52;99396.04;;;11.00;98.47
55733;BME280;41637;52.364;9.910;2022-11-04T02:33:29;99390.58;;;10.99;99.13
55733;BME280;41637;52.364;9.910;2022-11-04T02:36:03;99390.52;;;11.01;98.80
55733;BME280;41637;52.364;9.910;2022-11-04T02:41:37;99381.33;;;11.02;98.91
55733;BME280;41637;52.364;9.910;2022-11-04T02:44:37;99383.98;;;11.04;98.84
55733;BME280;41637;52.364;9.910;2022-11-04T02:47:14;99377.98;;;11.04;99.03
55733;BME280;41637;52.364;9.910;2022-11-04T02:49:59;99368.71;;;11.05;98.84
55733;BME280;41637;52.364;9.910;2022-11-04T02:52:42;99376.36;;;11.04;99.05
55733;BME280;41637;52.364;9.910;2022-11-04T02:55:21;99379.98;;;11.04;99.12
55733;BME280;41637;52.364;9.910;2022-11-04T02:57:52;99379.45;;;11.05;99.09
55733;BME280;41637;52.364;9.910;2022-11-04T03:00:21;99382.84;;;11.06;99.26
55733;BME280;41637;52.364;9.910;2022-11-04T03:03:15;99379.36;;;11.07;99.41
55733;BME280;41637;52.364;9.910;2022-11-04T03:05:45;99380.63;;;11.08;99.41
55733;BME280;41637;52.364;9.910;2022-11-04T03:08:21;99377.44;;;11.09;99.52
55733;BME280;41637;52.364;9.910;2022-11-04T03:10:54;99392.78;;;11.08;99.60
55733;BME280;41637;52.364;9.910;2022-11-04T03:13:41;99398.91;;;11.08;99.65
55733;BME280;41637;52.364;9.910;2022-11-04T03:16:14;99403.78;;;11.07;99.24
55733;BME280;41637;52.364;9.910;2022-11-04T03:21:23;99407.02;;;11.10;98.54
55733;BME280;41637;52.364;9.910;2022-11-04T03:23:51;99410.91;;;11.10;98.29
55733;BME280;41637;52.364;9.910;2022-11-04T03:26:28;99425.54;;;11.10;97.64
55733;BME280;41637;52.364;9.910;2022-11-04T03:29:21;99434.66;;;11.13;96.29
55733;BME280;41637;52.364;9.910;2022-11-04T03:32:02;99440.82;;;11.15;95.05
55733;BME280;41637;52.364;9.910;2022-11-04T03:34:31;99452.22;;;11.16;93.65
55733;BME280;41637;52.364;9.910;2022-11-04T03:36:58;99464.70;;;11.18;92.79
55733;BME280;41637;52.364;9.910;2022-11-04T03:39:25;99470.99;;;11.18;92.01
55733;BME280;41637;52.364;9.910;2022-11-04T03:41:55;99473.48;;;11.17;91.84
55733;BME280;41637;52.364;9.910;2022-11-04T03:44:23;99471.85;;;11.15;91.07
55733;BME280;41637;52.364;9.910;2022-11-04T03:46:52;99473.45;;;11.12;90.67
55733;BME280;41637;52.364;9.910;2022-11-04T03:49:23;99485.06;;;11.09;90.18
55733;BME280;41637;52.364;9.910;2022-11-04T03:51:50;99491.77;;;11.04;89.47
55733;BME280;41637;52.364;9.910;2022-11-04T03:54:18;99498.38;;;10.99;88.68
55733;BME280;41637;52.364;9.910;2022-11-04T03:57:01;99499.26;;;10.95;88.50
55733;BME280;41637;52.364;9.910;2022-11-04T04:02:22;99505.35;;;10.87;88.18
55733;BME280;41637;52.364;9.910;2022-11-04T04:05:01;99516.91;;;10.84;87.99
55733;BME280;41637;52.364;9.910;2022-11-04T04:07:36;99515.88;;;10.84;87.72
55733;BME280;41637;52.364;9.910;2022-11-04T04:13:19;99517.77;;;10.81;87.71
55733;BME280;41637;52.364;9.910;2022-11-04T04:18:56;99520.79;;;10.76;88.24
55733;BME280;41637;52.364;9.910;2022-11-04T04:21:29;99522.74;;;10.73;88.44
55733;BME280;41637;52.364;9.910;2022-11-04T04:23:58;99527.39;;;10.69;88.20
55733;BME280;41637;52.364;9.910;2022-11-04T04:26:47;99529.89;;;10.67;88.07
55733;BME280;41637;52.364;9.910;2022-11-04T04:29:34;99529.96;;;10.64;87.72
55733;BME280;41637;52.364;9.910;2022-11-04T04:32:03;99533.15;;;10.63;87.52
55733;BME280;41637;52.364;9.910;2022-11-04T04:34:32;99537.98;;;10.61;87.24
55733;BME280;41637;52.364;9.910;2022-11-04T04:37:22;99540.73;;;10.60;87.29
55733;BME280;41637;52.364;9.910;2022-11-04T04:39:53;99551.80;;;10.59;87.27
55733;BME280;41637;52.364;9.910;2022-11-04T04:42:39;99556.60;;;10.57;87.39
55733;BME280;41637;52.364;9.910;2022-11-04T04:45:33;99552.05;;;10.56;87.72
55733;BME280;41637;52.364;9.910;2022-11-04T04:48:01;99566.40;;;10.54;87.67
55733;BME280;41637;52.364;9.910;2022-11-04T04:50:35;99561.25;;;10.53;87.72
55733;BME280;41637;52.364;9.910;2022-11-04T04:53:02;99564.77;;;10.53;87.69
55733;BME280;41637;52.364;9.910;2022-11-04T04:55:29;99561.05;;;10.52;87.75
55733;BME280;41637;52.364;9.910;2022-11-04T04:58:07;99570.14;;;10.50;87.58
55733;BME280;41637;52.364;9.910;2022-11-04T05:00:33;99567.46;;;10.49;87.51
55733;BME280;41637;52.364;9.910;2022-11-04T05:03:00;99578.47;;;10.48;87.54
55733;BME280;41637;52.364;9.910;2022-11-04T05:05:26;99568.95;;;10.45;87.05
55733;BME280;41637;52.364;9.910;2022-11-04T05:07:53;99563.16;;;10.43;87.01
55733;BME280;41637;52.364;9.910;2022-11-04T05:10:19;99562.25;;;10.42;86.69
55733;BME280;41637;52.364;9.910;2022-11-04T05:12:46;99564.38;;;10.40;86.75
55733;BME280;41637;52.364;9.910;2022-11-04T05:15:31;99567.18;;;10.38;86.64
55733;BME280;41637;52.364;9.910;2022-11-04T05:18:01;99567.63;;;10.36;86.35
55733;BME280;41637;52.364;9.910;2022-11-04T05:20:28;99571.79;;;10.34;86.09
55733;BME280;41637;52.364;9.910;2022-11-04T05:22:55;99576.64;;;10.33;85.91
55733;BME280;41637;52.364;9.910;2022-11-04T05:25:22;99585.90;;;10.31;85.79
55733;BME280;41637;52.364;9.910;2022-11-04T05:27:48;99596.85;;;10.30;85.80
55733;BME280;41637;52.364;9.910;2022-11-04T05:30:15;99601.77;;;10.28;85.62
55733;BME280;41637;52.364;9.910;2022-11-04T05:32:41;99610.84;;;10.28;85.10
55733;BME280;41637;52.364;9.910;2022-11-04T05:35:08;99619.73;;;10.25;84.97
55733;BME280;41637;52.364;9.910;2022-11-04T05:37:34;99626.08;;;10.22;85.15
55733;BME280;41637;52.364;9.910;2022-11-04T05:40:01;99644.46;;;10.19;85.02
55733;BME280;41637;52.364;9.910;2022-11-04T05:42:29;99644.95;;;10.18;84.84
55733;BME280;41637;52.364;9.910;2022-11-04T05:44:56;99641.48;;;10.16;84.80
55733;BME280;41637;52.364;9.910;2022-11-04T05:47:22;99631.21;;;10.13;84.74
55733;BME280;41637;52.364;9.910;2022-11-04T05:49:48;99622.75;;;10.12;84.67
55733;BME280;41637;52.364;9.910;2022-11-04T05:52:15;99638.10;;;10.10;84.77
55733;BME280;41637;52.364;9.910;2022-11-04T05:54:41;99656.92;;;10.06;84.86
55733;BME280;41637;52.364;9.910;2022-11-04T05:57:08;99660.02;;;10.04;84.86
55733;BME280;41637;52.364;9.910;2022-11-04T05:59:35;99657.97;;;10.01;85.07
55733;BME280;41637;52.364;9.910;2022-11-04T06:02:02;99652.50;;;10.01;85.07
55733;BME280;41637;52.364;9.910;2022-11-04T06:04:28;99658.88;;;9.99;84.95
55733;BME280;41637;52.364;9.910;2022-11-04T06:06:55;99658.96;;;9.97;85.11
55733;BME280;41637;52.364;9.910;2022-11-04T06:09:22;99660.77;;;9.94;85.07
55733;BME280;41637;52.364;9.910;2022-11-04T06:12:12;99662.77;;;9.92;85.08
55733;BME280;41637;52.364;9.910;2022-11-04T06:14:42;99666.27;;;9.90;85.16
55733;BME280;41637;52.364;9.910;2022-11-04T06:17:13;99669.06;;;9.87;85.34
55733;BME280;41637;52.364;9.910;2022-11-04T06:19:40;99671.84;;;9.84;85.70
55733;BME280;41637;52.364;9.910;2022-11-04T06:22:09;99676.95;;;9.80;86.07
55733;BME280;41637;52.364;9.910;2022-11-04T06:24:36;99677.45;;;9.78;86.19
55733;BME280;41637;52.364;9.910;2022-11-04T06:27:03;99681.64;;;9.76;86.62
55733;BME280;41637;52.364;9.910;2022-11-04T06:29:30;99679.41;;;9.74;87.00
55733;BME280;41637;52.364;9.910;2022-11-04T06:31:56;99686.05;;;9.73;87.13
55733;BME280;41637;52.364;9.910;2022-11-04T06:34:24;99693.23;;;9.71;87.51
55733;BME280;41637;52.364;9.910;2022-11-04T06:36:50;99702.94;;;9.71;87.39
55733;BME280;41637;52.364;9.910;2022-11-04T06:39:17;99704.89;;;9.70;87.57
55733;BME280;41637;52.364;9.910;2022-11-04T06:41:43;99708.23;;;9.71;87.66
55733;BME280;41637;52.364;9.910;2022-11-04T06:44:15;99713.70;;;9.71;87.75
55733;BME280;41637;52.364;9.910;2022-11-04T06:46:42;99719.56;;;9.72;87.77
55733;BME280;41637;52.364;9.910;2022-11-04T06:49:19;99736.92;;;9.73;87.92
55733;BME280;41637;52.364;9.910;2022-11-04T06:51:47;99742.95;;;9.74;88.02
55733;BME280;41637;52.364;9.910;2022-11-04T06:54:15;99727.23;;;9.78;87.74
55733;BME280;41637;52.364;9.910;2022-11-04T06:56:42;99720.48;;;9.83;87.73
55733;BME280;41637;52.364;9.910;2022-11-04T06:59:19;99727.66;;;9.86;87.49
55733;BME280;41637;52.364;9.910;2022-11-04T07:01:47;99741.45;;;9.90;87.49
55733;BME280;41637;52.364;9.910;2022-11-04T07:04:14;99743.52;;;9.95;87.20
55733;BME280;41637;52.364;9.910;2022-11-04T07:06:42;99741.58;;;9.97;86.89
55733;BME280;41637;52.364;9.910;2022-11-04T07:09:11;99744.31;;;10.04;86.63
55733;BME280;41637;52.364;9.910;2022-11-04T07:11:39;99741.59;;;10.07;86.20
55733;BME280;41637;52.364;9.910;2022-11-04T07:14:07;99740.20;;;10.11;85.79
55733;BME280;41637;52.364;9.910;2022-11-04T07:16:34;99736.59;;;10.16;85.79
55733;BME280;41637;52.364;9.910;2022-11-04T07:19:01;99733.44;;;10.21;85.80
55733;BME280;41637;52.364;9.910;2022-11-04T07:21:28;99733.00;;;10.23;85.45
55733;BME280;41637;52.364;9.910;2022-11-04T07:23:54;99735.34;;;10.27;85.38
55733;BME280;41637;52.364;9.910;2022-11-04T07:26:21;99742.09;;;10.30;84.98
55733;BME280;41637;52.364;9.910;2022-11-04T07:28:48;99735.59;;;10.31;84.64
55733;BME280;41637;52.364;9.910;2022-11-04T07:31:14;99730.98;;;10.35;84.45
55733;BME280;41637;52.364;9.910;2022-11-04T07:33:41;99737.72;;;10.39;84.18
55733;BME280;41637;52.364;9.910;2022-11-04T07:36:10;99744.76;;;10.44;83.41
55733;BME280;41637;52.364;9.910;2022-11-04T07:38:38;99745.02;;;10.50;83.02
55733;BME280;41637;52.364;9.910;2022-11-04T07:41:04;99751.24;;;10.55;82.43
55733;BME280;41637;52.364;9.910;2022-11-04T07:43:31;99750.27;;;10.58;81.98
55733;BME280;41637;52.364;9.910;2022-11-04T07:46:17;99752.05;;;10.59;82.08
55733;BME280;41637;52.364;9.910;2022-11-04T07:48:43;99755.40;;;10.63;82.27
55733;BME280;41637;52.364;9.910;2022-11-04T07:51:13;99761.40;;;10.63;82.11
55733;BME280;41637;52.364;9.910;2022-11-04T07:53:42;99779.02;;;10.66;82.21
55733;BME280;41637;52.364;9.910;2022-11-04T07:56:10;99784.38;;;10.66;82.16
55733;BME280;41637;52.364;9.910;2022-11-04T07:58:37;99781.92;;;10.67;82.08
55733;BME280;41637;52.364;9.910;2022-11-04T08:01:06;99779.69;;;10.68;82.16
55733;BME280;41637;52.364;9.910;2022-11-04T08:03:34;99782.70;;;10.71;81.87
55733;BME280;41637;52.364;9.910;2022-11-04T08:06:03;99783.23;;;10.74;81.91
55733;BME280;41637;52.364;9.910;2022-11-04T08:08:30;99789.40;;;10.78;81.83
55733;BME280;41637;52.364;9.910;2022-11-04T08:11:06;99785.71;;;10.84;81.73
55733;BME280;41637;52.364;9.910;2022-11-04T08:13:39;99783.42;;;10.91;81.52
55733;BME280;41637;52.364;9.910;2022-11-04T08:16:09;99788.44;;;10.97;80.74
55733;BME280;41637;52.364;9.910;2022-11-04T08:18:38;99794.56;;;11.04;80.45
55733;BME280;41637;52.364;9.910;2022-11-04T08:21:06;99798.45;;;11.11;80.37
55733;BME280;41637;52.364;9.910;2022-11-04T08:23:32;99802.23;;;11.19;80.25
55733;BME280;41637;52.364;9.910;2022-11-04T08:26:11;99811.67;;;11.20;79.86
55733;BME280;41637;52.364;9.910;2022-11-04T08:28:39;99813.55;;;11.22;79.73
55733;BME280;41637;52.364;9.910;2022-11-04T08:31:08;99819.21;;;11.21;79.46
55733;BME280;41637;52.364;9.910;2022-11-04T08:33:37;99823.39;;;11.18;79.27
55733;BME280;41637;52.364;9.910;2022-11-04T08:36:28;99824.88;;;11.14;79.11
55733;BME280;41637;52.364;9.910;2022-11-04T08:38:53;99833.06;;;11.09;79.11
55733;BME280;41637;52.364;9.910;2022-11-04T08:41:23;99833.31;;;11.06;79.08
55733;BME280;41637;52.364;9.910;2022-11-04T08:43:51;99830.13;;;11.05;78.93
55733;BME280;41637;52.364;9.910;2022-11-04T08:46:18;99827.30;;;11.05;78.96
55733;BME280;41637;52.364;9.910;2022-11-04T08:48:44;99824.79;;;11.08;79.12
55733;BME280;41637;52.364;9.910;2022-11-04T08:51:15;99821.45;;;11.13;79.09
55733;BME280;41637;52.364;9.910;2022-11-04T08:53:42;99818.35;;;11.19;79.03
55733;BME280;41637;52.364;9.910;2022-11-04T08:56:20;99820.45;;;11.28;78.89
55733;BME280;41637;52.364;9.910;2022-11-04T08:58:48;99824.03;;;11.35;78.47
55733;BME280;41637;52.364;9.910;2022-11-04T09:01:15;99828.04;;;11.38;78.28
55733;BME280;41637;52.364;9.910;2022-11-04T09:03:42;99838.34;;;11.45;78.25
55733;BME280;41637;52.364;9.910;2022-11-04T09:06:12;99842.48;;;11.50;78.07
55733;BME280;41637;52.364;9.910;2022-11-04T09:08:39;99841.80;;;11.52;77.82
55733;BME280;41637;52.364;9.910;2022-11-04T09:11:09;99845.31;;;11.51;77.58
55733;BME280;41637;52.364;9.910;2022-11-04T09:13:36;99845.99;;;11.51;77.79
55733;BME280;41637;52.364;9.910;2022-11-04T09:16:06;99845.31;;;11.51;77.72
55733;BME280;41637;52.364;9.910;2022-11-04T09:18:33;99846.13;;;11.51;77.77
55733;BME280;41637;52.364;9.910;2022-11-04T09:21:01;99843.46;;;11.53;77.88
55733;BME280;41637;52.364;9.910;2022-11-04T09:23:27;99842.29;;;11.54;77.88
55733;BME280;41637;52.364;9.910;2022-11-04T09:25:54;99830.44;;;11.56;78.07
55733;BME280;41637;52.364;9.910;2022-11-04T09:28:22;99829.17;;;11.62;77.96
55733;BME280;41637;52.364;9.910;2022-11-04T09:30:49;99827.95;;;11.67;78.11
55733;BME280;41637;52.364;9.910;2022-11-04T09:33:16;99832.16;;;11.75;78.17
55733;BME280;41637;52.364;9.910;2022-11-04T09:35:43;99828.20;;;11.78;77.69
55733;BME280;41637;52.364;9.910;2022-11-04T09:38:09;99826.78;;;11.80;77.48
55733;BME280;41637;52.364;9.910;2022-11-04T09:40:36;99827.23;;;11.87;77.47
55733;BME280;41637;52.364;9.910;2022-11-04T09:46:23;99832.95;;;11.89;77.38
55733;BME280;41637;52.364;9.910;2022-11-04T09:48:53;99829.80;;;11.87;77.10
55733;BME280;41637;52.364;9.910;2022-11-04T09:51:23;99829.63;;;11.85;77.58
55733;BME280;41637;52.364;9.910;2022-11-04T09:54:32;99828.49;;;11.83;77.22
55733;BME280;41637;52.364;9.910;2022-11-04T09:57:00;99830.01;;;11.81;76.89
55733;BME280;41637;52.364;9.910;2022-11-04T09:59:31;99827.89;;;11.79;77.08
55733;BME280;41637;52.364;9.910;2022-11-04T10:04:58;99824.36;;;11.78;76.73
55733;BME280;41637;52.364;9.910;2022-11-04T10:16:25;99816.90;;;12.08;73.92
55733;BME280;41637;52.364;9.910;2022-11-04T10:19:18;99826.20;;;12.07;73.35
55733;BME280;41637;52.364;9.910;2022-11-04T10:22:22;99831.02;;;12.05;73.67
55733;BME280;41637;52.364;9.910;2022-11-04T10:25:03;99825.41;;;12.09;72.74
55733;BME280;41637;52.364;9.910;2022-11-04T10:27:36;99831.78;;;12.15;72.44
55733;BME280;41637;52.364;9.910;2022-11-04T10:30:13;99837.02;;;12.15;71.85
55733;BME280;41637;52.364;9.910;2022-11-04T10:37:40;99874.07;;;12.35;71.94
55733;BME280;41637;52.364;9.910;2022-11-04T10:40:19;99878.59;;;12.41;72.62
55733;BME280;41637;52.364;9.910;2022-11-04T10:42:49;99878.75;;;12.45;72.17
55733;BME280;41637;52.364;9.910;2022-11-04T10:45:20;99883.44;;;12.34;70.17
55733;BME280;41637;52.364;9.910;2022-11-04T10:47:55;99884.41;;;12.37;70.13
55733;BME280;41637;52.364;9.910;2022-11-04T10:50:29;99879.84;;;12.30;70.49
55733;BME280;41637;52.364;9.910;2022-11-04T10:53:16;99878.98;;;12.29;70.95
55733;BME280;41637;52.364;9.910;2022-11-04T10:58:46;99886.00;;;12.40;70.52
55733;BME280;41637;52.364;9.910;2022-11-04T11:01:31;99886.98;;;12.40;70.91
55733;BME280;41637;52.364;9.910;2022-11-04T11:03:59;99887.60;;;12.44;70.44
55733;BME280;41637;52.364;9.910;2022-11-04T11:06:30;99890.81;;;12.53;69.81
55733;BME280;41637;52.364;9.910;2022-11-04T11:09:00;99888.73;;;12.59;68.85
55733;BME280;41637;52.364;9.910;2022-11-04T11:11:48;99877.55;;;12.68;68.82
55733;BME280;41637;52.364;9.910;2022-11-04T11:14:30;99878.63;;;12.95;68.82
55733;BME280;41637;52.364;9.910;2022-11-04T11:22:45;99874.75;;;13.40;65.51
55733;BME280;41637;52.364;9.910;2022-11-04T11:35:56;99877.27;;;13.22;66.16
55733;BME280;41637;52.364;9.910;2022-11-04T11:38:29;99879.45;;;13.23;66.86
55733;BME280;41637;52.364;9.910;2022-11-04T11:41:11;99875.25;;;13.20;67.04
55733;BME280;41637;52.364;9.910;2022-11-04T11:43:54;99877.16;;;13.22;67.45
55733;BME280;41637;52.364;9.910;2022-11-04T11:46:23;99879.91;;;13.18;67.41
55733;BME280;41637;52.364;9.910;2022-11-04T11:48:55;99880.82;;;13.21;67.92
55733;BME280;41637;52.364;9.910;2022-11-04T11:51:32;99887.29;;;13.20;67.43
55733;BME280;41637;52.364;9.910;2022-11-04T11:56:34;99885.52;;;13.24;66.78
55733;BME280;41637;52.364;9.910;2022-11-04T11:59:46;99883.20;;;13.32;67.02
55733;BME280;41637;52.364;9.910;2022-11-04T12:05:09;99878.60;;;13.61;65.07
55733;BME280;41637;52.364;9.910;2022-11-04T12:08:14;99877.22;;;13.67;64.05
55733;BME280;41637;52.364;9.910;2022-11-04T12:11:22;99876.02;;;13.68;64.27
55733;BME280;41637;52.364;9.910;2022-11-04T12:13:55;99878.83;;;13.68;63.84
55733;BME280;41637;52.364;9.910;2022-11-04T12:19:24;99879.58;;;13.63;64.88
55733;BME280;41637;52.364;9.910;2022-11-04T12:22:03;99878.52;;;13.61;65.07
55733;BME280;41637;52.364;9.910;2022-11-04T12:24:54;99880.27;;;13.81;64.38
55733;BME280;41637;52.364;9.910;2022-11-04T12:31:06;99880.55;;;15.46;60.51
55733;BME280;41637;52.364;9.910;2022-11-04T12:33:47;99889.02;;;15.38;57.83
55733;BME280;41637;52.364;9.910;2022-11-04T12:36:27;99884.13;;;15.16;59.37
55733;BME280;41637;52.364;9.910;2022-11-04T12:39:16;99882.05;;;14.82;60.07
55733;BME280;41637;52.364;9.910;2022-11-04T12:42:04;99886.96;;;14.46;61.54
55733;BME280;41637;52.364;9.910;2022-11-04T12:48:05;99890.75;;;13.92;63.65
55733;BME280;41637;52.364;9.910;2022-11-04T12:53:25;99910.17;;;13.63;65.05
55733;BME280;41637;52.364;9.910;2022-11-04T12:58:32;99912.52;;;13.76;64.94
55733;BME280;41637;52.364;9.910;2022-11-04T13:01:24;99914.11;;;14.21;63.72
55733;BME280;41637;52.364;9.910;2022-11-04T13:04:20;99917.55;;;14.73;61.58
55733;BME280;41637;52.364;9.910;2022-11-04T13:06:52;99926.69;;;15.27;60.42
55733;BME280;41637;52.364;9.910;2022-11-04T13:09:30;99928.15;;;15.41;59.15
55733;BME280;41637;52.364;9.910;2022-11-04T13:12:15;99934.35;;;15.39;58.73
55733;BME280;41637;52.364;9.910;2022-11-04T13:14:55;99939.75;;;15.22;58.49
55733;BME280;41637;52.364;9.910;2022-11-04T13:17:32;99942.84;;;15.24;58.31
55733;BME280;41637;52.364;9.910;2022-11-04T13:20:19;99941.72;;;15.25;58.36
55733;BME280;41637;52.364;9.910;2022-11-04T13:22:50;99947.73;;;15.41;58.24
55733;BME280;41637;52.364;9.910;2022-11-04T13:25:29;99955.70;;;15.69;58.08
55733;BME280;41637;52.364;9.910;2022-11-04T13:27:57;99954.13;;;15.90;56.31
55733;BME280;41637;52.364;9.910;2022-11-04T13:35:58;99952.67;;;15.33;56.95
55733;BME280;41637;52.364;9.910;2022-11-04T13:38:31;99953.88;;;15.00;57.71
55733;BME280;41637;52.364;9.910;2022-11-04T13:43:56;99960.80;;;14.53;60.06
55733;BME280;41637;52.364;9.910;2022-11-04T13:46:28;99961.76;;;14.51;60.59
55733;BME280;41637;52.364;9.910;2022-11-04T13:49:03;99959.66;;;14.55;60.88
55733;BME280;41637;52.364;9.910;2022-11-04T13:51:44;99956.81;;;14.90;59.47
55733;BME280;41637;52.364;9.910;2022-11-04T13:57:21;99967.95;;;15.41;58.10
55733;BME280;41637;52.364;9.910;2022-11-04T14:02:54;99967.52;;;15.25;57.75
55733;BME280;41637;52.364;9.910;2022-11-04T14:16:37;99975.33;;;14.12;61.55
55733;BME280;41637;52.364;9.910;2022-11-04T14:22:16;99984.27;;;14.59;61.36
55733;BME280;41637;52.364;9.910;2022-11-04T14:24:43;99989.79;;;14.93;60.50
55733;BME280;41637;52.364;9.910;2022-11-04T14:27:30;99996.11;;;15.38;60.31
55733;BME280;41637;52.364;9.910;2022-11-04T14:29:59;99999.04;;;15.65;58.48
55733;BME280;41637;52.364;9.910;2022-11-04T14:32:31;100003.04;;;15.73;58.20
55733;BME280;41637;52.364;9.910;2022-11-04T14:35:02;100004.05;;;15.54;57.55
55733;BME280;41637;52.364;9.910;2022-11-04T14:37:34;100003.90;;;15.37;58.17
55733;BME280;41637;52.364;9.910;2022-11-04T14:40:21;100003.14;;;15.22;58.93
55733;BME280;41637;52.364;9.910;2022-11-04T14:42:56;100004.03;;;15.13;59.45
55733;BME280;41637;52.364;9.910;2022-11-04T14:45:27;100010.41;;;14.92;59.83
55733;BME280;41637;52.364;9.910;2022-11-04T14:48:11;100015.63;;;14.76;60.39
55733;BME280;41637;52.364;9.910;2022-11-04T14:50:44;100016.83;;;14.58;61.01
55733;BME280;41637;52.364;9.910;2022-11-04T14:53:38;100021.08;;;14.47;61.54
55733;BME280;41637;52.364;9.910;2022-11-04T14:58:38;100031.73;;;14.25;62.54
55733;BME280;41637;52.364;9.910;2022-11-04T15:01:04;100032.48;;;14.10;62.81
55733;BME280;41637;52.364;9.910;2022-11-04T15:03:35;100042.86;;;13.89;63.46
55733;BME280;41637;52.364;9.910;2022-11-04T15:06:25;100049.71;;;13.69;64.12
55733;BME280;41637;52.364;9.910;2022-11-04T15:09:20;100051.67;;;13.60;65.07
55733;BME280;41637;52.364;9.910;2022-11-04T15:11:47;100053.40;;;13.80;64.76
55733;BME280;41637;52.364;9.910;2022-11-04T15:14:35;100054.56;;;13.60;64.68
55733;BME280;41637;52.364;9.910;2022-11-04T15:17:02;100056.63;;;13.35;65.50
55733;BME280;41637;52.364;9.910;2022-11-04T15:19:31;100058.48;;;13.13;66.20
55733;BME280;41637;52.364;9.910;2022-11-04T15:22:01;100062.77;;;12.95;66.82
55733;BME280;41637;52.364;9.910;2022-11-04T15:24:29;100063.91;;;12.78;67.65
55733;BME280;41637;52.364;9.910;2022-11-04T15:27:00;100061.48;;;12.63;68.18
55733;BME280;41637;52.364;9.910;2022-11-04T15:29:27;100061.44;;;12.49;68.66